sensor_id;sensor_type;location;lat;lon;timestamp;pressure;altitude;pressure_sealevel;temperature;humidity
59043;BME280;44826;51.596;5.624;2023-03-11T00:00:28;100614.19;;;0.56;80.36
59043;BME280;44826;51.596;5.624;2023-03-11T00:02:55;100622.66;;;0.52;80.25
59043;BME280;44826;51.596;5.624;2023-03-11T00:05:30;100628.59;;;0.48;79.68
59043;BME280;44826;51.596;5.624;2023-03-11T00:07:56;100627.69;;;0.42;79.72
59043;BME280;44826;51.596;5.624;2023-03-11T00:10:27;100623.34;;;0.38;79.72
59043;BME280;44826;51.596;5.624;2023-03-11T00:12:54;100625.03;;;0.36;79.62
59043;BME280;44826;51.596;5.624;2023-03-11T00:15:20;100627.56;;;0.33;79.25
59043;BME280;44826;51.596;5.624;2023-03-11T00:17:47;100635.22;;;0.32;79.90
59043;BME280;44826;51.596;5.624;2023-03-11T00:20:21;100636.03;;;0.29;79.33
59043;BME280;44826;51.596;5.624;2023-03-11T00:22:46;100639.47;;;0.31;80.17
59043;BME280;44826;51.596;5.624;2023-03-11T00:25:13;100636.03;;;0.29;79.60
59043;BME280;44826;51.596;5.624;2023-03-11T00:27:39;100643.69;;;0.27;78.97
59043;BME280;44826;51.596;5.624;2023-03-11T00:30:05;100644.47;;;0.22;78.23
59043;BME280;44826;51.596;5.624;2023-03-11T00:32:30;100641.03;;;0.20;78.90
59043;BME280;44826;51.596;5.624;2023-03-11T00:34:55;100647.81;;;0.18;78.82
59043;BME280;44826;51.596;5.624;2023-03-11T00:37:21;100655.44;;;0.13;77.53
59043;BME280;44826;51.596;5.624;2023-03-11T00:39:46;100656.25;;;0.10;77.88
59043;BME280;44826;51.596;5.624;2023-03-11T00:42:11;100656.25;;;0.10;77.85
59043;BME280;44826;51.596;5.624;2023-03-11T00:44:36;100663.03;;;0.08;77.89
59043;BME280;44826;51.596;5.624;2023-03-11T00:47:02;100663.88;;;0.06;77.53
59043;BME280;44826;51.596;5.624;2023-03-11T00:49:27;100674.91;;;0.03;76.96
59043;BME280;44826;51.596;5.624;2023-03-11T00:51:52;100670.66;;;0.05;78.51
59043;BME280;44826;51.596;5.624;2023-03-11T00:54:18;100672.31;;;0.00;76.88
59043;BME280;44826;51.596;5.624;2023-03-11T00:56:43;100675.72;;;0.02;77.10
59043;BME280;44826;51.596;5.624;2023-03-11T00:59:08;100679.94;;;-0.02;77.16
59043;BME280;44826;51.596;5.624;2023-03-11T01:01:34;100677.38;;;-0.03;76.77
59043;BME280;44826;51.596;5.624;2023-03-11T01:03:59;100674.78;;;-0.05;76.41
59043;BME280;44826;51.596;5.624;2023-03-11T01:06:24;100683.28;;;-0.07;76.39
59043;BME280;44826;51.596;5.624;2023-03-11T01:08:49;100684.06;;;-0.11;77.05
59043;BME280;44826;51.596;5.624;2023-03-11T01:11:15;100690.00;;;-0.14;77.69
59043;BME280;44826;51.596;5.624;2023-03-11T01:13:40;100692.50;;;-0.16;78.16
59043;BME280;44826;51.596;5.624;2023-03-11T01:16:05;100695.91;;;-0.17;78.37
59043;BME280;44826;51.596;5.624;2023-03-11T01:18:32;100703.56;;;-0.17;78.83
59043;BME280;44826;51.596;5.624;2023-03-11T01:20:58;100712.13;;;-0.16;78.71
59043;BME280;44826;51.596;5.624;2023-03-11T01:23:24;100707.00;;;-0.18;78.71
59043;BME280;44826;51.596;5.624;2023-03-11T01:25:49;100707.00;;;-0.18;79.13
59043;BME280;44826;51.596;5.624;2023-03-11T01:28:14;100714.63;;;-0.19;79.18
59043;BME280;44826;51.596;5.624;2023-03-11T01:30:40;100712.88;;;-0.22;79.01
59043;BME280;44826;51.596;5.624;2023-03-11T01:33:07;100713.69;;;-0.24;79.87
59043;BME280;44826;51.596;5.624;2023-03-11T01:35:33;100722.19;;;-0.25;79.54
59043;BME280;44826;51.596;5.624;2023-03-11T01:37:59;100723.88;;;-0.26;79.84
59043;BME280;44826;51.596;5.624;2023-03-11T01:40:39;100716.22;;;-0.26;80.20
59043;BME280;44826;51.596;5.624;2023-03-11T01:43:35;100717.06;;;-0.27;79.51
59043;BME280;44826;51.596;5.624;2023-03-11T01:48:17;100722.09;;;-0.30;79.63
59043;BME280;44826;51.596;5.624;2023-03-11T01:50:45;100713.59;;;-0.31;79.93
59043;BME280;44826;51.596;5.624;2023-03-11T01:53:14;100714.44;;;-0.32;79.75
59043;BME280;44826;51.596;5.624;2023-03-11T01:55:40;100712.69;;;-0.33;79.78
59043;BME280;44826;51.596;5.624;2023-03-11T01:58:10;100722.03;;;-0.33;79.62
59043;BME280;44826;51.596;5.624;2023-03-11T02:00:38;100717.75;;;-0.36;78.91
59043;BME280;44826;51.596;5.624;2023-03-11T02:03:10;100720.31;;;-0.37;79.94
59043;BME280;44826;51.596;5.624;2023-03-11T02:05:39;100718.56;;;-0.38;79.48
59043;BME280;44826;51.596;5.624;2023-03-11T02:08:05;100715.13;;;-0.40;79.44
59043;BME280;44826;51.596;5.624;2023-03-11T02:10:31;100717.69;;;-0.40;79.03
59043;BME280;44826;51.596;5.624;2023-03-11T02:12:56;100721.06;;;-0.43;79.67
59043;BME280;44826;51.596;5.624;2023-03-11T02:15:23;100723.56;;;-0.44;79.76
59043;BME280;44826;51.596;5.624;2023-03-11T02:17:48;100724.38;;;-0.47;79.63
59043;BME280;44826;51.596;5.624;2023-03-11T02:20:35;100726.97;;;-0.46;80.26
59043;BME280;44826;51.596;5.624;2023-03-11T02:23:04;100725.22;;;-0.48;80.06
59043;BME280;44826;51.596;5.624;2023-03-11T02:26:06;100726.06;;;-0.48;80.09
59043;BME280;44826;51.596;5.624;2023-03-11T02:28:35;100727.72;;;-0.51;79.51
59043;BME280;44826;51.596;5.624;2023-03-11T02:31:01;100729.38;;;-0.53;79.50
59043;BME280;44826;51.596;5.624;2023-03-11T02:33:31;100728.53;;;-0.54;79.47
59043;BME280;44826;51.596;5.624;2023-03-11T02:35:57;100738.75;;;-0.54;79.04
59043;BME280;44826;51.596;5.624;2023-03-11T02:38:22;100731.03;;;-0.55;78.89
59043;BME280;44826;51.596;5.624;2023-03-11T02:40:59;100730.19;;;-0.56;79.10
59043;BME280;44826;51.596;5.624;2023-03-11T02:43:33;100731.03;;;-0.57;79.12
59043;BME280;44826;51.596;5.624;2023-03-11T02:46:02;100726.75;;;-0.58;79.98
59043;BME280;44826;51.596;5.624;2023-03-11T02:48:29;100731.84;;;-0.58;79.91
59043;BME280;44826;51.596;5.624;2023-03-11T02:50:55;100726.69;;;-0.59;79.53
59043;BME280;44826;51.596;5.624;2023-03-11T02:53:20;100736.09;;;-0.58;79.69
59043;BME280;44826;51.596;5.624;2023-03-11T02:55:46;100730.13;;;-0.59;79.92
59043;BME280;44826;51.596;5.624;2023-03-11T02:58:11;100728.44;;;-0.58;79.83
59043;BME280;44826;51.596;5.624;2023-03-11T03:00:36;100731.84;;;-0.58;79.97
59043;BME280;44826;51.596;5.624;2023-03-11T03:03:02;100725.03;;;-0.59;80.25
59043;BME280;44826;51.596;5.624;2023-03-11T03:05:28;100724.22;;;-0.56;80.00
59043;BME280;44826;51.596;5.624;2023-03-11T03:07:53;100722.47;;;-0.57;79.88
59043;BME280;44826;51.596;5.624;2023-03-11T03:10:20;100730.13;;;-0.59;79.48
59043;BME280;44826;51.596;5.624;2023-03-11T03:12:45;100728.44;;;-0.58;79.90
59043;BME280;44826;51.596;5.624;2023-03-11T03:15:10;100728.44;;;-0.58;80.05
59043;BME280;44826;51.596;5.624;2023-03-11T03:17:36;100736.97;;;-0.58;79.97
59043;BME280;44826;51.596;5.624;2023-03-11T03:20:02;100741.25;;;-0.57;79.86
59043;BME280;44826;51.596;5.624;2023-03-11T03:22:30;100741.19;;;-0.60;80.44
59043;BME280;44826;51.596;5.624;2023-03-11T03:24:55;100756.50;;;-0.62;80.58
59043;BME280;44826;51.596;5.624;2023-03-11T03:27:21;100764.16;;;-0.62;80.00
59043;BME280;44826;51.596;5.624;2023-03-11T03:29:46;100764.13;;;-0.63;80.48
59043;BME280;44826;51.596;5.624;2023-03-11T03:32:11;100770.03;;;-0.66;80.35
59043;BME280;44826;51.596;5.624;2023-03-11T03:34:37;100776.00;;;-0.65;80.57
59043;BME280;44826;51.596;5.624;2023-03-11T03:37:02;100782.75;;;-0.67;79.78
59043;BME280;44826;51.596;5.624;2023-03-11T03:39:27;100785.28;;;-0.70;80.28
59043;BME280;44826;51.596;5.624;2023-03-11T03:41:52;100781.00;;;-0.71;80.30
59043;BME280;44826;51.596;5.624;2023-03-11T03:44:18;100789.50;;;-0.72;80.67
59043;BME280;44826;51.596;5.624;2023-03-11T03:46:43;100795.47;;;-0.72;80.65
59043;BME280;44826;51.596;5.624;2023-03-11T03:49:08;100799.72;;;-0.72;80.68
59043;BME280;44826;51.596;5.624;2023-03-11T03:51:34;100800.56;;;-0.73;80.25
59043;BME280;44826;51.596;5.624;2023-03-11T03:53:59;100798.00;;;-0.73;81.03
59043;BME280;44826;51.596;5.624;2023-03-11T03:56:24;100801.41;;;-0.73;80.95
59043;BME280;44826;51.596;5.624;2023-03-11T03:58:49;100798.00;;;-0.73;81.18
59043;BME280;44826;51.596;5.624;2023-03-11T04:01:15;100798.84;;;-0.73;80.83
59043;BME280;44826;51.596;5.624;2023-03-11T04:03:40;100805.69;;;-0.72;81.06
59043;BME280;44826;51.596;5.624;2023-03-11T04:06:22;100802.28;;;-0.72;80.81
59043;BME280;44826;51.596;5.624;2023-03-11T04:08:47;100804.91;;;-0.69;81.14
59043;BME280;44826;51.596;5.624;2023-03-11T04:11:14;100806.50;;;-0.74;81.29
59043;BME280;44826;51.596;5.624;2023-03-11T04:13:39;100807.31;;;-0.75;80.71
59043;BME280;44826;51.596;5.624;2023-03-11T04:16:06;100813.25;;;-0.77;81.08
59043;BME280;44826;51.596;5.624;2023-03-11T04:18:33;100812.34;;;-0.79;80.83
59043;BME280;44826;51.596;5.624;2023-03-11T04:20:59;100815.75;;;-0.80;80.87
59043;BME280;44826;51.596;5.624;2023-03-11T04:23:24;100818.28;;;-0.81;80.91
59043;BME280;44826;51.596;5.624;2023-03-11T04:25:49;100819.06;;;-0.84;80.81
59043;BME280;44826;51.596;5.624;2023-03-11T04:28:14;100832.66;;;-0.85;80.19
59043;BME280;44826;51.596;5.624;2023-03-11T04:30:40;100825.78;;;-0.89;80.72
59043;BME280;44826;51.596;5.624;2023-03-11T04:33:05;100825.72;;;-0.90;81.24
59043;BME280;44826;51.596;5.624;2023-03-11T04:35:31;100819.72;;;-0.94;81.36
59043;BME280;44826;51.596;5.624;2023-03-11T04:37:56;100828.19;;;-0.95;81.62
59043;BME280;44826;51.596;5.624;2023-03-11T04:40:21;100825.56;;;-0.98;81.33
59043;BME280;44826;51.596;5.624;2023-03-11T04:42:47;100826.41;;;-0.99;81.05
59043;BME280;44826;51.596;5.624;2023-03-11T04:45:12;100825.56;;;-1.00;81.35
59043;BME280;44826;51.596;5.624;2023-03-11T04:47:37;100820.38;;;-1.01;81.52
59043;BME280;44826;51.596;5.624;2023-03-11T04:50:03;100822.94;;;-1.01;81.36
59043;BME280;44826;51.596;5.624;2023-03-11T04:52:28;100822.94;;;-1.03;82.01
59043;BME280;44826;51.596;5.624;2023-03-11T04:54:54;100829.75;;;-1.03;81.54
59043;BME280;44826;51.596;5.624;2023-03-11T04:57:19;100824.50;;;-1.08;81.34
59043;BME280;44826;51.596;5.624;2023-03-11T04:59:44;100822.75;;;-1.11;81.59
59043;BME280;44826;51.596;5.624;2023-03-11T05:02:09;100826.13;;;-1.12;81.52
59043;BME280;44826;51.596;5.624;2023-03-11T05:04:35;100826.13;;;-1.12;81.64
59043;BME280;44826;51.596;5.624;2023-03-11T05:07:00;100829.53;;;-1.13;82.04
59043;BME280;44826;51.596;5.624;2023-03-11T05:09:25;100829.53;;;-1.13;81.78
59043;BME280;44826;51.596;5.624;2023-03-11T05:11:51;100826.94;;;-1.14;82.60
59043;BME280;44826;51.596;5.624;2023-03-11T05:14:16;100826.94;;;-1.14;81.98
59043;BME280;44826;51.596;5.624;2023-03-11T05:16:41;100822.69;;;-1.14;82.40
59043;BME280;44826;51.596;5.624;2023-03-11T05:19:07;100837.16;;;-1.14;82.21
59043;BME280;44826;51.596;5.624;2023-03-11T05:21:52;100837.09;;;-1.16;82.39
59043;BME280;44826;51.596;5.624;2023-03-11T05:24:18;100834.47;;;-1.19;81.77
59043;BME280;44826;51.596;5.624;2023-03-11T05:26:43;100835.34;;;-1.18;81.80
59043;BME280;44826;51.596;5.624;2023-03-11T05:29:08;100847.19;;;-1.22;81.85
59043;BME280;44826;51.596;5.624;2023-03-11T05:31:34;100850.59;;;-1.22;82.70
59043;BME280;44826;51.596;5.624;2023-03-11T05:33:59;100853.97;;;-1.23;82.02
59043;BME280;44826;51.596;5.624;2023-03-11T05:36:24;100850.50;;;-1.26;82.68
59043;BME280;44826;51.596;5.624;2023-03-11T05:38:49;100853.84;;;-1.29;82.94
59043;BME280;44826;51.596;5.624;2023-03-11T05:41:17;100849.56;;;-1.30;82.83
59043;BME280;44826;51.596;5.624;2023-03-11T05:43:42;100850.41;;;-1.31;82.68
59043;BME280;44826;51.596;5.624;2023-03-11T05:46:08;100860.63;;;-1.29;82.40
59043;BME280;44826;51.596;5.624;2023-03-11T05:48:34;100868.28;;;-1.31;82.74
59043;BME280;44826;51.596;5.624;2023-03-11T05:51:00;100869.94;;;-1.31;82.32
59043;BME280;44826;51.596;5.624;2023-03-11T05:53:30;100871.66;;;-1.30;82.46
59043;BME280;44826;51.596;5.624;2023-03-11T05:55:59;100872.56;;;-1.30;82.30
59043;BME280;44826;51.596;5.624;2023-03-11T05:58:25;100879.38;;;-1.29;82.64
59043;BME280;44826;51.596;5.624;2023-03-11T06:00:51;100880.16;;;-1.31;83.21
59043;BME280;44826;51.596;5.624;2023-03-11T06:03:16;100880.97;;;-1.32;82.19
59043;BME280;44826;51.596;5.624;2023-03-11T06:05:46;100884.34;;;-1.33;82.25
59043;BME280;44826;51.596;5.624;2023-03-11T06:08:11;100890.28;;;-1.34;82.24
59043;BME280;44826;51.596;5.624;2023-03-11T06:10:37;100892.81;;;-1.36;82.77
59043;BME280;44826;51.596;5.624;2023-03-11T06:13:02;100894.47;;;-1.38;82.61
59043;BME280;44826;51.596;5.624;2023-03-11T06:15:28;100890.16;;;-1.41;82.97
59043;BME280;44826;51.596;5.624;2023-03-11T06:17:53;100902.09;;;-1.40;83.05
59043;BME280;44826;51.596;5.624;2023-03-11T06:20:19;100902.84;;;-1.42;82.85
59043;BME280;44826;51.596;5.624;2023-03-11T06:22:47;100899.47;;;-1.43;82.65
59043;BME280;44826;51.596;5.624;2023-03-11T06:25:12;100900.28;;;-1.44;83.26
59043;BME280;44826;51.596;5.624;2023-03-11T06:27:38;100903.66;;;-1.45;83.14
59043;BME280;44826;51.596;5.624;2023-03-11T06:30:03;100901.09;;;-1.46;83.77
59043;BME280;44826;51.596;5.624;2023-03-11T06:32:29;100910.41;;;-1.47;83.63
59043;BME280;44826;51.596;5.624;2023-03-11T06:34:54;100912.94;;;-1.48;83.82
59043;BME280;44826;51.596;5.624;2023-03-11T06:37:20;100914.59;;;-1.49;84.66
59043;BME280;44826;51.596;5.624;2023-03-11T06:39:51;100913.78;;;-1.48;84.39
59043;BME280;44826;51.596;5.624;2023-03-11T06:42:16;100913.78;;;-1.48;84.91
59043;BME280;44826;51.596;5.624;2023-03-11T06:44:41;100922.31;;;-1.47;84.60
59043;BME280;44826;51.596;5.624;2023-03-11T06:47:06;100930.81;;;-1.47;84.70
59043;BME280;44826;51.596;5.624;2023-03-11T06:49:32;100925.78;;;-1.45;84.85
59043;BME280;44826;51.596;5.624;2023-03-11T06:51:57;100936.00;;;-1.44;85.49
59043;BME280;44826;51.596;5.624;2023-03-11T06:54:22;100942.91;;;-1.40;85.17
59043;BME280;44826;51.596;5.624;2023-03-11T06:56:48;100947.19;;;-1.39;85.74
59043;BME280;44826;51.596;5.624;2023-03-11T06:59:14;100958.34;;;-1.35;85.66
59043;BME280;44826;51.596;5.624;2023-03-11T07:01:39;100959.25;;;-1.33;84.87
59043;BME280;44826;51.596;5.624;2023-03-11T07:04:05;100966.09;;;-1.32;84.52
59043;BME280;44826;51.596;5.624;2023-03-11T07:06:30;100959.31;;;-1.30;84.43
59043;BME280;44826;51.596;5.624;2023-03-11T07:08:55;100972.19;;;-1.25;84.25
59043;BME280;44826;51.596;5.624;2023-03-11T07:11:23;100968.91;;;-1.21;84.52
59043;BME280;44826;51.596;5.624;2023-03-11T07:13:49;100981.78;;;-1.16;84.56
59043;BME280;44826;51.596;5.624;2023-03-11T07:16:20;100979.31;;;-1.12;84.73
59043;BME280;44826;51.596;5.624;2023-03-11T07:18:46;100979.47;;;-1.05;84.02
59043;BME280;44826;51.596;5.624;2023-03-11T07:21:14;100979.53;;;-1.02;84.04
59043;BME280;44826;51.596;5.624;2023-03-11T07:23:40;100983.97;;;-0.95;83.96
59043;BME280;44826;51.596;5.624;2023-03-11T07:26:10;100992.63;;;-0.90;83.66
59043;BME280;44826;51.596;5.624;2023-03-11T07:28:37;100986.75;;;-0.86;83.49
59043;BME280;44826;51.596;5.624;2023-03-11T07:31:07;100988.53;;;-0.82;83.29
59043;BME280;44826;51.596;5.624;2023-03-11T07:33:32;100992.06;;;-0.77;83.37
59043;BME280;44826;51.596;5.624;2023-03-11T07:35:57;100987.03;;;-0.73;84.06
59043;BME280;44826;51.596;5.624;2023-03-11T07:38:23;100992.25;;;-0.69;83.69
59043;BME280;44826;51.596;5.624;2023-03-11T07:40:57;100998.34;;;-0.64;83.34
59043;BME280;44826;51.596;5.624;2023-03-11T07:43:22;100991.59;;;-0.60;83.18
59043;BME280;44826;51.596;5.624;2023-03-11T07:45:47;101004.44;;;-0.57;83.73
59043;BME280;44826;51.596;5.624;2023-03-11T07:48:14;101001.97;;;-0.54;83.50
59043;BME280;44826;51.596;5.624;2023-03-11T07:50:39;101010.56;;;-0.49;83.77
59043;BME280;44826;51.596;5.624;2023-03-11T07:53:04;101006.38;;;-0.47;83.39
59043;BME280;44826;51.596;5.624;2023-03-11T07:55:30;101004.78;;;-0.41;83.00
59043;BME280;44826;51.596;5.624;2023-03-11T07:57:55;101010.81;;;-0.38;82.70
59043;BME280;44826;51.596;5.624;2023-03-11T08:00:20;101010.03;;;-0.35;82.85
59043;BME280;44826;51.596;5.624;2023-03-11T08:02:46;101016.91;;;-0.31;81.66
59043;BME280;44826;51.596;5.624;2023-03-11T08:05:11;101024.72;;;-0.26;81.41
59043;BME280;44826;51.596;5.624;2023-03-11T08:07:37;101023.91;;;-0.24;82.09
59043;BME280;44826;51.596;5.624;2023-03-11T08:10:02;101021.44;;;-0.19;81.49
59043;BME280;44826;51.596;5.624;2023-03-11T08:12:28;101029.22;;;-0.14;80.67
59043;BME280;44826;51.596;5.624;2023-03-11T08:14:53;101024.16;;;-0.11;80.52
59043;BME280;44826;51.596;5.624;2023-03-11T08:17:19;101032.81;;;-0.06;80.53
59043;BME280;44826;51.596;5.624;2023-03-11T08:19:44;101036.34;;;-0.01;79.74
59043;BME280;44826;51.596;5.624;2023-03-11T08:22:09;101034.72;;;0.04;80.42
59043;BME280;44826;51.596;5.624;2023-03-11T08:24:34;101037.41;;;0.12;80.00
59043;BME280;44826;51.596;5.624;2023-03-11T08:27:00;101041.84;;;0.19;80.07
59043;BME280;44826;51.596;5.624;2023-03-11T08:29:25;101041.09;;;0.23;79.73
59043;BME280;44826;51.596;5.624;2023-03-11T08:31:51;101035.25;;;0.30;79.18
59043;BME280;44826;51.596;5.624;2023-03-11T08:34:16;101025.97;;;0.36;78.99
59043;BME280;44826;51.596;5.624;2023-03-11T08:36:42;101026.88;;;0.39;78.42
59043;BME280;44826;51.596;5.624;2023-03-11T08:39:07;101029.50;;;0.44;78.97
59043;BME280;44826;51.596;5.624;2023-03-11T08:41:33;101029.56;;;0.47;78.46
59043;BME280;44826;51.596;5.624;2023-03-11T08:43:59;101032.22;;;0.52;78.56
59043;BME280;44826;51.596;5.624;2023-03-11T08:46:27;101038.28;;;0.57;78.41
59043;BME280;44826;51.596;5.624;2023-03-11T08:48:53;101045.19;;;0.61;77.49
59043;BME280;44826;51.596;5.624;2023-03-11T08:51:19;101052.97;;;0.66;75.87
59043;BME280;44826;51.596;5.624;2023-03-11T08:53:45;101051.31;;;0.69;75.16
59043;BME280;44826;51.596;5.624;2023-03-11T08:56:11;101056.53;;;0.74;76.49
59043;BME280;44826;51.596;5.624;2023-03-11T08:58:36;101059.19;;;0.79;74.17
59043;BME280;44826;51.596;5.624;2023-03-11T09:01:02;101057.53;;;0.82;74.29
59043;BME280;44826;51.596;5.624;2023-03-11T09:03:32;101069.56;;;0.88;73.84
59043;BME280;44826;51.596;5.624;2023-03-11T09:06:01;101073.97;;;0.95;72.94
59043;BME280;44826;51.596;5.624;2023-03-11T09:08:27;101072.38;;;1.00;74.52
59043;BME280;44826;51.596;5.624;2023-03-11T09:10:52;101073.28;;;1.04;73.67
59043;BME280;44826;51.596;5.624;2023-03-11T09:13:18;101067.41;;;1.10;74.31
59043;BME280;44826;51.596;5.624;2023-03-11T09:15:43;101066.69;;;1.17;73.73
59043;BME280;44826;51.596;5.624;2023-03-11T09:18:12;101076.16;;;1.24;73.24
59043;BME280;44826;51.596;5.624;2023-03-11T09:20:38;101072.03;;;1.32;72.54
59043;BME280;44826;51.596;5.624;2023-03-11T09:23:04;101078.13;;;1.41;72.77
59043;BME280;44826;51.596;5.624;2023-03-11T09:25:29;101074.78;;;1.45;72.73
59043;BME280;44826;51.596;5.624;2023-03-11T09:27:54;101079.13;;;1.49;70.77
59043;BME280;44826;51.596;5.624;2023-03-11T09:30:20;101072.34;;;1.54;69.33
59043;BME280;44826;51.596;5.624;2023-03-11T09:32:45;101079.31;;;1.60;72.36
59043;BME280;44826;51.596;5.624;2023-03-11T09:35:10;101081.94;;;1.64;69.75
59043;BME280;44826;51.596;5.624;2023-03-11T09:37:35;101089.69;;;1.69;67.97
59043;BME280;44826;51.596;5.624;2023-03-11T09:40:01;101087.28;;;1.78;67.33
59043;BME280;44826;51.596;5.624;2023-03-11T09:45:03;101090.22;;;2.05;68.91
59043;BME280;44826;51.596;5.624;2023-03-11T09:50:37;101086.22;;;2.28;69.23
59043;BME280;44826;51.596;5.624;2023-03-11T09:53:28;101088.03;;;2.36;67.54
59043;BME280;44826;51.596;5.624;2023-03-11T09:56:00;101088.13;;;2.43;68.52
59043;BME280;44826;51.596;5.624;2023-03-11T10:01:16;101087.41;;;2.58;66.16
59043;BME280;44826;51.596;5.624;2023-03-11T10:03:46;101090.91;;;2.65;63.44
59043;BME280;44826;51.596;5.624;2023-03-11T10:06:23;101084.16;;;2.72;65.01
59043;BME280;44826;51.596;5.624;2023-03-11T10:08:56;101086.81;;;2.80;65.10
59043;BME280;44826;51.596;5.624;2023-03-11T10:20:21;101082.69;;;2.99;68.08
59043;BME280;44826;51.596;5.624;2023-03-11T10:25:48;101099.03;;;3.04;66.53
59043;BME280;44826;51.596;5.624;2023-03-11T10:28:18;101111.91;;;3.09;63.04
59043;BME280;44826;51.596;5.624;2023-03-11T10:30:47;101093.97;;;3.13;61.81
59043;BME280;44826;51.596;5.624;2023-03-11T10:33:45;101098.34;;;3.25;65.74
59043;BME280;44826;51.596;5.624;2023-03-11T10:36:20;101104.41;;;3.32;61.16
59043;BME280;44826;51.596;5.624;2023-03-11T10:38:49;101103.59;;;3.36;61.96
59043;BME280;44826;51.596;5.624;2023-03-11T10:43:48;101103.69;;;3.47;64.23
59043;BME280;44826;51.596;5.624;2023-03-11T10:46:23;101112.31;;;3.55;62.76
59043;BME280;44826;51.596;5.624;2023-03-11T10:48:49;101106.41;;;3.66;62.98
59043;BME280;44826;51.596;5.624;2023-03-11T10:51:22;101106.44;;;3.73;61.76
59043;BME280;44826;51.596;5.624;2023-03-11T10:53:57;101106.44;;;3.76;57.50
59043;BME280;44826;51.596;5.624;2023-03-11T10:58:49;101097.97;;;3.90;58.16
59043;BME280;44826;51.596;5.624;2023-03-11T11:01:16;101108.34;;;4.02;58.93
59043;BME280;44826;51.596;5.624;2023-03-11T11:03:44;101101.50;;;4.10;56.74
59043;BME280;44826;51.596;5.624;2023-03-11T11:06:24;101093.81;;;4.17;61.44
59043;BME280;44826;51.596;5.624;2023-03-11T11:09:25;101091.28;;;4.29;63.79
59043;BME280;44826;51.596;5.624;2023-03-11T11:12:04;101095.63;;;4.41;61.97
59043;BME280;44826;51.596;5.624;2023-03-11T11:14:49;101098.22;;;4.49;62.62
59043;BME280;44826;51.596;5.624;2023-03-11T11:17:22;101106.84;;;4.51;60.00
59043;BME280;44826;51.596;5.624;2023-03-11T11:19:48;101107.72;;;4.51;56.25
59043;BME280;44826;51.596;5.624;2023-03-11T11:22:16;101099.97;;;4.53;61.74
59043;BME280;44826;51.596;5.624;2023-03-11T11:24:44;101106.88;;;4.60;60.98
59043;BME280;44826;51.596;5.624;2023-03-11T11:29:35;101106.94;;;4.76;58.86
59043;BME280;44826;51.596;5.624;2023-03-11T11:32:19;101103.50;;;4.83;62.67
59043;BME280;44826;51.596;5.624;2023-03-11T11:34:56;101099.19;;;4.85;62.28
59043;BME280;44826;51.596;5.624;2023-03-11T11:37:23;101106.06;;;4.88;61.50
59043;BME280;44826;51.596;5.624;2023-03-11T11:39:53;101106.94;;;4.88;59.21
59043;BME280;44826;51.596;5.624;2023-03-11T11:42:21;101097.50;;;4.85;57.74
59043;BME280;44826;51.596;5.624;2023-03-11T11:44:59;101104.38;;;4.83;54.89
59043;BME280;44826;51.596;5.624;2023-03-11T11:47:33;101103.47;;;4.80;55.37
59043;BME280;44826;51.596;5.624;2023-03-11T11:50:00;101101.75;;;4.74;52.92
59043;BME280;44826;51.596;5.624;2023-03-11T11:52:33;101098.31;;;4.70;55.11
59043;BME280;44826;51.596;5.624;2023-03-11T11:55:26;101101.78;;;4.76;59.34
59043;BME280;44826;51.596;5.624;2023-03-11T11:57:53;101105.22;;;4.78;52.98
59043;BME280;44826;51.596;5.624;2023-03-11T12:00:27;101103.50;;;4.81;54.12
59043;BME280;44826;51.596;5.624;2023-03-11T12:05:54;101102.66;;;4.82;56.98
59043;BME280;44826;51.596;5.624;2023-03-11T12:08:37;101101.78;;;4.85;56.77
59043;BME280;44826;51.596;5.624;2023-03-11T12:11:06;101104.38;;;4.83;53.02
59043;BME280;44826;51.596;5.624;2023-03-11T12:19:38;101098.38;;;5.08;54.00
59043;BME280;44826;51.596;5.624;2023-03-11T12:22:41;101097.53;;;5.27;56.80
59043;BME280;44826;51.596;5.624;2023-03-11T12:30:55;101094.94;;;5.65;54.76
59043;BME280;44826;51.596;5.624;2023-03-11T12:33:32;101097.50;;;5.78;54.27
59043;BME280;44826;51.596;5.624;2023-03-11T12:36:00;101098.31;;;5.90;50.85
59043;BME280;44826;51.596;5.624;2023-03-11T12:38:37;101092.31;;;5.96;52.88
59043;BME280;44826;51.596;5.624;2023-03-11T12:41:34;101094.88;;;6.02;54.94
59043;BME280;44826;51.596;5.624;2023-03-11T12:44:28;101090.56;;;6.07;55.71
59043;BME280;44826;51.596;5.624;2023-03-11T12:49:31;101075.88;;;6.31;50.91
59043;BME280;44826;51.596;5.624;2023-03-11T12:54:35;101084.41;;;6.45;48.79
59043;BME280;44826;51.596;5.624;2023-03-11T13:00:21;101076.59;;;6.56;56.15
59043;BME280;44826;51.596;5.624;2023-03-11T13:08:12;101069.69;;;6.60;50.22
59043;BME280;44826;51.596;5.624;2023-03-11T13:10:52;101073.13;;;6.62;51.83
59043;BME280;44826;51.596;5.624;2023-03-11T13:13:39;101066.28;;;6.53;48.25
59043;BME280;44826;51.596;5.624;2023-03-11T13:18:36;101061.06;;;6.64;49.20
59043;BME280;44826;51.596;5.624;2023-03-11T13:21:02;101071.28;;;6.81;49.01
59043;BME280;44826;51.596;5.624;2023-03-11T13:23:32;101071.09;;;7.07;50.27
59043;BME280;44826;51.596;5.624;2023-03-11T13:33:54;101059.81;;;8.05;47.73
59043;BME280;44826;51.596;5.624;2023-03-11T13:41:53;101058.91;;;8.76;48.39
59043;BME280;44826;51.596;5.624;2023-03-11T13:44:33;101061.16;;;9.00;48.32
59043;BME280;44826;51.596;5.624;2023-03-11T13:47:12;101063.31;;;9.27;47.37
59043;BME280;44826;51.596;5.624;2023-03-11T13:49:42;101060.63;;;9.34;42.82
59043;BME280;44826;51.596;5.624;2023-03-11T13:52:14;101067.53;;;9.35;47.58
59043;BME280;44826;51.596;5.624;2023-03-11T13:54:45;101060.50;;;9.40;44.79
59043;BME280;44826;51.596;5.624;2023-03-11T13:57:22;101060.44;;;9.43;45.54
59043;BME280;44826;51.596;5.624;2023-03-11T13:59:52;101063.16;;;9.37;44.29
59043;BME280;44826;51.596;5.624;2023-03-11T14:02:20;101064.22;;;9.23;41.51
59043;BME280;44826;51.596;5.624;2023-03-11T14:04:50;101067.91;;;9.10;41.29
59043;BME280;44826;51.596;5.624;2023-03-11T14:07:27;101068.91;;;9.03;46.63
59043;BME280;44826;51.596;5.624;2023-03-11T14:10:25;101071.50;;;9.01;45.72
59043;BME280;44826;51.596;5.624;2023-03-11T14:16:01;101073.72;;;8.70;45.26
59043;BME280;44826;51.596;5.624;2023-03-11T14:18:39;101073.72;;;8.70;45.05